Time;durP1;ratioP1;P1;durP2;ratioP2;P2;SDS_P1;SDS_P2;PMS_P1;PMS_P2;Temp;Humidity;BMP_temperature;BMP_pressure;BME280_temperature;BME280_humidity;BME280_pressure;Samples;Min_cycle;Max_cycle;Signal;HPM_P1;HPM_P2
2023/02/01 00:01:59;;;;;;;32.10;6.00;;;;;;;;;;4985828;28;20232;-74
2023/02/01 00:04:25;;;;;;;30.43;5.67;;;;;;;;;;4987291;28;20424;-74
2023/02/01 00:06:50;;;;;;;29.97;5.47;;;;;;;;;;5004349;28;20288;-74
2023/02/01 00:09:15;;;;;;;25.40;5.20;;;;;;;;;;5001298;28;20683;-74
2023/02/01 00:11:41;;;;;;;28.07;5.80;;;;;;;;;;5006230;28;20260;-74
2023/02/01 00:14:07;;;;;;;28.40;5.87;;;;;;;;;;5008614;28;20209;-74
2023/02/01 00:16:33;;;;;;;29.23;5.90;;;;;;;;;;4989870;28;20673;-74
2023/02/01 00:19:00;;;;;;;28.97;6.77;;;;;;;;;;4991528;28;20420;-74
2023/02/01 00:21:25;;;;;;;23.67;5.60;;;;;;;;;;5013544;28;20185;-74
2023/02/01 00:23:50;;;;;;;33.73;5.80;;;;;;;;;;5015005;28;20499;-74
2023/02/01 00:26:19;;;;;;;21.77;5.60;;;;;;;;;;5013676;28;20215;-74
2023/02/01 00:28:47;;;;;;;30.10;5.83;;;;;;;;;;5014704;28;20212;-74
2023/02/01 00:31:14;;;;;;;28.53;5.00;;;;;;;;;;5015580;28;20496;-74
2023/02/01 00:33:40;;;;;;;28.37;6.83;;;;;;;;;;5015068;28;20422;-74
2023/02/01 00:36:06;;;;;;;34.37;6.60;;;;;;;;;;4998668;28;20885;-74
2023/02/01 00:38:33;;;;;;;32.47;5.90;;;;;;;;;;5014210;28;20238;-74
2023/02/01 00:41:02;;;;;;;28.63;6.47;;;;;;;;;;5013830;28;20474;-74
2023/02/01 00:43:28;;;;;;;22.00;5.07;;;;;;;;;;4992431;28;20439;-74
2023/02/01 00:45:55;;;;;;;25.03;4.93;;;;;;;;;;4991325;28;20450;-74
2023/02/01 00:48:23;;;;;;;32.27;5.40;;;;;;;;;;5012042;28;20676;-74
2023/02/01 00:50:48;;;;;;;36.27;6.63;;;;;;;;;;5010899;28;20466;-74
2023/02/01 00:53:13;;;;;;;30.07;5.13;;;;;;;;;;5013847;28;20881;-74
2023/02/01 00:55:39;;;;;;;25.57;6.40;;;;;;;;;;5013567;28;20218;-74
2023/02/01 00:58:09;;;;;;;31.57;7.23;;;;;;;;;;5012115;28;20639;-74
2023/02/01 01:00:34;;;;;;;23.33;5.30;;;;;;;;;;4997612;28;20783;-74
2023/02/01 01:03:02;;;;;;;29.47;5.77;;;;;;;;;;5015150;28;20423;-74
2023/02/01 01:05:27;;;;;;;23.93;5.57;;;;;;;;;;4996490;28;20215;-73
2023/02/01 01:07:53;;;;;;;26.63;5.80;;;;;;;;;;4997055;28;20415;-74
2023/02/01 01:10:20;;;;;;;26.23;5.50;;;;;;;;;;5015368;28;20220;-74
2023/02/01 01:12:48;;;;;;;29.60;5.60;;;;;;;;;;5015673;28;20630;-74
2023/02/01 01:15:13;;;;;;;24.50;6.10;;;;;;;;;;5013653;28;20436;-74
2023/02/01 01:17:39;;;;;;;26.93;5.40;;;;;;;;;;5007690;28;20642;-74
2023/02/01 01:20:04;;;;;;;28.90;4.97;;;;;;;;;;5009753;28;20268;-74
2023/02/01 01:22:29;;;;;;;22.70;5.70;;;;;;;;;;4996643;28;20216;-74
2023/02/01 01:24:57;;;;;;;32.00;5.67;;;;;;;;;;5014089;28;20208;-74
2023/02/01 01:27:23;;;;;;;24.40;4.93;;;;;;;;;;5013845;28;20267;-74
2023/02/01 01:29:49;;;;;;;24.60;5.17;;;;;;;;;;5011637;28;21005;-74
2023/02/01 01:32:14;;;;;;;30.00;5.10;;;;;;;;;;5008260;28;20428;-74
2023/02/01 01:34:40;;;;;;;21.87;4.93;;;;;;;;;;5011459;28;20260;-74
2023/02/01 01:37:05;;;;;;;32.43;5.80;;;;;;;;;;5009320;28;20680;-74
2023/02/01 01:39:30;;;;;;;27.20;4.60;;;;;;;;;;5007266;28;20311;-74
2023/02/01 01:41:56;;;;;;;20.30;5.23;;;;;;;;;;5001582;28;20197;-74
2023/02/01 01:44:40;;;;;;;15.87;4.50;;;;;;;;;;5002578;28;20321;-74
2023/02/01 01:47:05;;;;;;;22.03;4.93;;;;;;;;;;5003829;28;20193;-74
2023/02/01 01:49:30;;;;;;;24.30;5.70;;;;;;;;;;5004854;28;20466;-74
2023/02/01 01:52:01;;;;;;;22.70;5.00;;;;;;;;;;5003992;28;20209;-74
2023/02/01 01:54:32;;;;;;;27.23;5.40;;;;;;;;;;5003316;28;20208;-74
2023/02/01 01:56:59;;;;;;;27.83;5.70;;;;;;;;;;5001415;28;20452;-74
2023/02/01 01:59:27;;;;;;;31.37;6.90;;;;;;;;;;5007092;28;20474;-74
2023/02/01 02:01:52;;;;;;;25.57;5.30;;;;;;;;;;5011319;28;20470;-74
2023/02/01 02:04:18;;;;;;;26.50;4.70;;;;;;;;;;5011465;28;20427;-74
2023/02/01 02:06:49;;;;;;;22.03;5.00;;;;;;;;;;5003596;28;20230;-74
2023/02/01 02:09:16;;;;;;;24.43;5.43;;;;;;;;;;4997596;28;20320;-74
2023/02/01 02:11:41;;;;;;;30.03;5.47;;;;;;;;;;4991712;28;20433;-74
2023/02/01 02:14:11;;;;;;;31.03;5.57;;;;;;;;;;5006234;28;21019;-73
2023/02/01 02:16:55;;;;;;;24.60;5.53;;;;;;;;;;5001618;28;20252;-73
2023/02/01 02:19:40;;;;;;;25.97;5.10;;;;;;;;;;4985812;28;20454;-73
2023/02/01 02:22:09;;;;;;;27.87;4.60;;;;;;;;;;5007105;28;20424;-74
2023/02/01 02:24:38;;;;;;;23.00;5.23;;;;;;;;;;4989247;28;20431;-74
2023/02/01 02:27:03;;;;;;;23.60;5.17;;;;;;;;;;4986456;28;20847;-74
2023/02/01 02:29:49;;;;;;;27.00;5.23;;;;;;;;;;4997276;28;20473;-73
2023/02/01 02:32:23;;;;;;;23.37;5.40;;;;;;;;;;4978748;28;20290;-74
2023/02/01 02:34:51;;;;;;;30.03;6.00;;;;;;;;;;4999912;28;22212;-73
2023/02/01 02:37:19;;;;;;;23.03;6.03;;;;;;;;;;5002105;28;20470;-73
2023/02/01 02:39:57;;;;;;;25.27;4.93;;;;;;;;;;4999031;28;21466;-74
2023/02/01 02:48:07;;;;;;;31.67;5.80;;;;;;;;;;4999301;28;20431;-73
2023/02/01 03:04:57;;;;;;;17.33;3.93;;;;;;;;;;5000246;28;20463;-72
2023/02/01 03:07:41;;;;;;;26.20;5.80;;;;;;;;;;4985414;28;20444;-73
2023/02/01 03:10:10;;;;;;;21.73;4.60;;;;;;;;;;4997648;28;20196;-73
2023/02/01 03:12:55;;;;;;;23.30;5.10;;;;;;;;;;5000284;28;20524;-73
2023/02/01 03:15:26;;;;;;;33.30;5.77;;;;;;;;;;4997222;28;20540;-73
2023/02/01 03:17:52;;;;;;;25.10;4.77;;;;;;;;;;4976666;28;20436;-73
2023/02/01 03:20:19;;;;;;;20.77;5.30;;;;;;;;;;4982036;28;20443;-73
2023/02/01 03:22:46;;;;;;;20.23;4.53;;;;;;;;;;4982524;28;20440;-73
2023/02/01 03:25:13;;;;;;;24.80;5.20;;;;;;;;;;4997938;28;20448;-73
2023/02/01 03:27:42;;;;;;;28.90;5.20;;;;;;;;;;4995542;28;20439;-74
2023/02/01 03:30:10;;;;;;;21.73;5.47;;;;;;;;;;5003423;28;21193;-73
2023/02/01 03:35:25;;;;;;;22.30;5.20;;;;;;;;;;5000917;28;20823;-73
2023/02/01 03:37:52;;;;;;;24.93;5.07;;;;;;;;;;5002034;28;20470;-73
2023/02/01 03:40:18;;;;;;;22.30;5.53;;;;;;;;;;4986938;28;20869;-73
2023/02/01 03:42:47;;;;;;;27.20;6.20;;;;;;;;;;4983617;28;20522;-73
2023/02/01 03:45:16;;;;;;;24.93;6.30;;;;;;;;;;5003389;28;20456;-73
2023/02/01 03:47:44;;;;;;;26.90;5.30;;;;;;;;;;5006172;28;20953;-74
2023/02/01 03:50:12;;;;;;;21.43;4.83;;;;;;;;;;5008533;28;20467;-74
2023/02/01 03:52:40;;;;;;;27.70;5.67;;;;;;;;;;4990355;28;20468;-74
2023/02/01 03:55:06;;;;;;;24.07;5.53;;;;;;;;;;5006803;28;20500;-73
2023/02/01 03:57:35;;;;;;;24.57;4.93;;;;;;;;;;5007225;28;20443;-73
2023/02/01 04:00:07;;;;;;;24.90;5.47;;;;;;;;;;4988400;23;20536;-70
2023/02/01 04:02:33;;;;;;;20.80;5.20;;;;;;;;;;4984022;28;20505;-70
2023/02/01 04:05:07;;;;;;;22.53;5.03;;;;;;;;;;4968648;28;20997;-70
2023/02/01 04:07:32;;;;;;;22.20;5.33;;;;;;;;;;4979879;28;20219;-71
2023/02/01 04:09:58;;;;;;;20.00;4.20;;;;;;;;;;4963374;28;20510;-70
2023/02/01 04:12:23;;;;;;;17.50;4.00;;;;;;;;;;4966129;28;20237;-71
2023/02/01 04:14:48;;;;;;;24.43;4.33;;;;;;;;;;4964239;28;20182;-71
2023/02/01 04:17:14;;;;;;;19.50;3.80;;;;;;;;;;4963378;28;20565;-71
2023/02/01 04:19:39;;;;;;;23.53;5.00;;;;;;;;;;4964417;28;20253;-71
2023/02/01 04:22:04;;;;;;;17.93;4.13;;;;;;;;;;4963345;28;20197;-71
2023/02/01 04:24:30;;;;;;;20.67;4.87;;;;;;;;;;4960996;28;20182;-72
2023/02/01 04:26:55;;;;;;;20.20;4.37;;;;;;;;;;4960234;28;20182;-71
2023/02/01 04:29:20;;;;;;;19.17;4.47;;;;;;;;;;4963267;28;20679;-71
2023/02/01 04:31:46;;;;;;;16.70;3.90;;;;;;;;;;4964598;28;20189;-73
2023/02/01 04:34:14;;;;;;;13.23;3.37;;;;;;;;;;4966144;28;20624;-71
2023/02/01 04:36:39;;;;;;;15.80;4.13;;;;;;;;;;4963016;28;20218;-71
2023/02/01 04:39:05;;;;;;;17.77;4.80;;;;;;;;;;4962967;28;20555;-71
2023/02/01 04:41:30;;;;;;;28.30;5.43;;;;;;;;;;4962839;28;20186;-71
2023/02/01 04:43:55;;;;;;;38.10;7.03;;;;;;;;;;4962870;28;20595;-71
2023/02/01 04:46:21;;;;;;;22.03;5.30;;;;;;;;;;4961073;28;20226;-71
2023/02/01 04:48:46;;;;;;;28.03;5.60;;;;;;;;;;4962995;28;20198;-71
2023/02/01 04:51:11;;;;;;;22.10;5.00;;;;;;;;;;4966392;28;20186;-72
2023/02/01 04:53:37;;;;;;;24.13;5.33;;;;;;;;;;4966229;28;20553;-71
2023/02/01 04:56:02;;;;;;;27.00;5.83;;;;;;;;;;4962705;28;20552;-72
2023/02/01 04:58:27;;;;;;;27.70;5.50;;;;;;;;;;4965641;28;20214;-72
2023/02/01 05:00:53;;;;;;;23.33;4.93;;;;;;;;;;4964973;28;20213;-71
2023/02/01 05:03:18;;;;;;;29.47;4.47;;;;;;;;;;4964824;28;20198;-72
2023/02/01 05:05:43;;;;;;;22.23;5.23;;;;;;;;;;4983464;28;20178;-71
2023/02/01 05:08:09;;;;;;;22.87;5.60;;;;;;;;;;4989316;28;20698;-72
2023/02/01 05:10:34;;;;;;;23.90;4.77;;;;;;;;;;4986280;28;20240;-72
2023/02/01 05:15:45;;;;;;;20.30;4.97;;;;;;;;;;4983700;28;20176;-71
2023/02/01 05:18:11;;;;;;;20.73;4.60;;;;;;;;;;4985973;28;21020;-70
2023/02/01 05:20:37;;;;;;;18.63;4.80;;;;;;;;;;4986380;28;20457;-70
2023/02/01 05:23:02;;;;;;;26.23;5.97;;;;;;;;;;4986809;28;20186;-70
2023/02/01 05:25:30;;;;;;;29.80;6.10;;;;;;;;;;4988554;28;20224;-71
2023/02/01 05:27:55;;;;;;;35.97;6.70;;;;;;;;;;4983407;28;20197;-70
2023/02/01 05:30:23;;;;;;;27.17;5.80;;;;;;;;;;4987969;28;20503;-71
2023/02/01 05:32:50;;;;;;;32.03;6.20;;;;;;;;;;4966324;28;20196;-71
2023/02/01 05:35:15;;;;;;;42.33;6.73;;;;;;;;;;4986041;28;20542;-70
2023/02/01 05:37:40;;;;;;;33.50;5.70;;;;;;;;;;4985926;28;20851;-71
2023/02/01 05:40:06;;;;;;;40.13;6.87;;;;;;;;;;4984937;28;20212;-71
2023/02/01 05:42:32;;;;;;;34.40;5.50;;;;;;;;;;4985186;28;20188;-70
2023/02/01 05:44:59;;;;;;;31.40;6.70;;;;;;;;;;4988818;28;20188;-73
2023/02/01 05:47:25;;;;;;;31.27;6.20;;;;;;;;;;4980731;28;20193;-73
2023/02/01 05:49:50;;;;;;;30.70;7.03;;;;;;;;;;4977877;28;20476;-72
2023/02/01 05:52:19;;;;;;;32.43;6.93;;;;;;;;;;4974943;28;20185;-73
2023/02/01 05:54:44;;;;;;;28.07;6.03;;;;;;;;;;4962908;28;20217;-71
2023/02/01 05:57:10;;;;;;;37.57;6.33;;;;;;;;;;4958392;28;20461;-72
2023/02/01 05:59:40;;;;;;;39.83;8.43;;;;;;;;;;4983630;28;20399;-70
2023/02/01 06:02:06;;;;;;;31.20;7.07;;;;;;;;;;4966108;28;20220;-72
2023/02/01 06:04:31;;;;;;;26.70;5.77;;;;;;;;;;4967397;28;20523;-71
2023/02/01 06:06:57;;;;;;;34.90;6.50;;;;;;;;;;4981083;28;20699;-71
2023/02/01 06:09:22;;;;;;;25.43;6.50;;;;;;;;;;4964349;28;20209;-71
2023/02/01 06:11:48;;;;;;;34.93;7.00;;;;;;;;;;4986312;28;20174;-71
2023/02/01 06:14:13;;;;;;;27.50;6.20;;;;;;;;;;4964704;28;20188;-71
2023/02/01 06:16:38;;;;;;;24.30;6.33;;;;;;;;;;4987967;28;20193;-71
2023/02/01 06:19:04;;;;;;;29.33;7.10;;;;;;;;;;4986087;28;20216;-71
2023/02/01 06:21:29;;;;;;;26.87;6.13;;;;;;;;;;4985874;28;20198;-71
2023/02/01 06:23:55;;;;;;;26.43;5.83;;;;;;;;;;4985189;28;20838;-71
2023/02/01 06:26:20;;;;;;;37.13;6.70;;;;;;;;;;4971091;28;20309;-71
2023/02/01 06:28:46;;;;;;;38.13;6.13;;;;;;;;;;4968468;28;20209;-72
2023/02/01 06:31:11;;;;;;;42.93;7.40;;;;;;;;;;4985364;28;20277;-72
2023/02/01 06:33:37;;;;;;;38.30;6.87;;;;;;;;;;4984617;28;20208;-71
2023/02/01 06:36:04;;;;;;;36.70;8.20;;;;;;;;;;4981943;28;20213;-71
2023/02/01 06:38:29;;;;;;;35.73;6.90;;;;;;;;;;4984542;28;20209;-73
2023/02/01 06:40:56;;;;;;;34.67;7.47;;;;;;;;;;4986355;28;20441;-70
2023/02/01 06:43:22;;;;;;;34.97;7.07;;;;;;;;;;4985123;28;20224;-73
2023/02/01 06:45:47;;;;;;;33.87;6.47;;;;;;;;;;4983764;28;20432;-71
2023/02/01 06:48:12;;;;;;;25.60;6.27;;;;;;;;;;4984606;28;20967;-71
2023/02/01 06:50:38;;;;;;;40.50;7.20;;;;;;;;;;4982910;28;20209;-71
2023/02/01 06:53:03;;;;;;;28.10;6.40;;;;;;;;;;4988073;28;20182;-72
2023/02/01 06:55:31;;;;;;;27.87;7.33;;;;;;;;;;4985839;28;20184;-71
2023/02/01 06:57:57;;;;;;;37.60;5.20;;;;;;;;;;4968831;28;20189;-71
2023/02/01 07:00:25;;;;;;;34.80;6.07;;;;;;;;;;4983121;28;20898;-72
2023/02/01 07:02:50;;;;;;;29.93;5.07;;;;;;;;;;4981127;28;20541;-73
2023/02/01 07:05:16;;;;;;;25.03;5.50;;;;;;;;;;4967557;28;20448;-72
2023/02/01 07:07:41;;;;;;;28.93;6.10;;;;;;;;;;4988786;28;20247;-72
2023/02/01 07:10:07;;;;;;;23.07;5.93;;;;;;;;;;4986534;28;20627;-72
2023/02/01 07:12:32;;;;;;;36.00;5.60;;;;;;;;;;4978526;28;20182;-71
2023/02/01 07:14:57;;;;;;;26.17;5.20;;;;;;;;;;4984065;28;20180;-72
2023/02/01 07:17:23;;;;;;;17.53;4.93;;;;;;;;;;4985051;28;20177;-72
2023/02/01 07:19:48;;;;;;;29.87;4.40;;;;;;;;;;4984501;28;20259;-72
2023/02/01 07:22:16;;;;;;;19.67;5.07;;;;;;;;;;4969754;28;20277;-72
2023/02/01 07:24:41;;;;;;;18.73;3.67;;;;;;;;;;4983810;28;20288;-73
2023/02/01 07:27:12;;;;;;;20.20;4.00;;;;;;;;;;4983720;28;20547;-72
2023/02/01 07:29:38;;;;;;;28.27;3.87;;;;;;;;;;4966137;28;20268;-72
2023/02/01 07:32:03;;;;;;;19.27;3.97;;;;;;;;;;4985252;28;21592;-72
2023/02/01 07:34:30;;;;;;;24.60;4.67;;;;;;;;;;4964053;28;20236;-72
2023/02/01 07:36:55;;;;;;;26.90;4.67;;;;;;;;;;4987481;28;20178;-73
2023/02/01 07:39:20;;;;;;;27.17;6.53;;;;;;;;;;4973546;28;20461;-72
2023/02/01 07:41:46;;;;;;;18.40;5.00;;;;;;;;;;4979654;28;20178;-73
2023/02/01 07:44:11;;;;;;;25.77;5.20;;;;;;;;;;4982326;28;20185;-73
2023/02/01 07:46:38;;;;;;;17.83;4.60;;;;;;;;;;4983054;28;20672;-72
2023/02/01 07:49:03;;;;;;;25.77;4.60;;;;;;;;;;4966181;28;20202;-72
2023/02/01 07:51:32;;;;;;;18.70;4.47;;;;;;;;;;4983246;28;20436;-73
2023/02/01 07:53:57;;;;;;;28.57;5.57;;;;;;;;;;4984153;28;20201;-72
2023/02/01 07:56:22;;;;;;;23.73;5.10;;;;;;;;;;4983467;28;20484;-72
2023/02/01 07:58:48;;;;;;;20.03;4.47;;;;;;;;;;4985805;28;20285;-72
2023/02/01 08:01:20;;;;;;;25.27;4.33;;;;;;;;;;4982448;28;20193;-72
2023/02/01 08:03:50;;;;;;;27.87;5.50;;;;;;;;;;4968005;28;20204;-72
2023/02/01 08:06:15;;;;;;;22.17;4.23;;;;;;;;;;4980871;28;20465;-72
2023/02/01 08:08:42;;;;;;;24.07;4.53;;;;;;;;;;4981695;28;20492;-70
2023/02/01 08:11:07;;;;;;;25.73;4.87;;;;;;;;;;4965523;28;20182;-71
2023/02/01 08:13:34;;;;;;;20.33;5.40;;;;;;;;;;4984386;28;20478;-72
2023/02/01 08:16:00;;;;;;;27.33;4.50;;;;;;;;;;4966523;28;20189;-72
2023/02/01 08:18:26;;;;;;;22.67;4.90;;;;;;;;;;4983118;28;20507;-72
2023/02/01 08:20:51;;;;;;;33.70;6.40;;;;;;;;;;4984092;28;20468;-72
2023/02/01 08:23:17;;;;;;;27.53;6.20;;;;;;;;;;4985590;28;20801;-71
2023/02/01 08:25:42;;;;;;;26.23;5.83;;;;;;;;;;4984782;28;20189;-71
2023/02/01 08:28:08;;;;;;;31.50;5.83;;;;;;;;;;4984934;28;20597;-72
2023/02/01 08:30:33;;;;;;;20.63;5.00;;;;;;;;;;4979462;28;20873;-71
2023/02/01 08:32:59;;;;;;;26.50;5.50;;;;;;;;;;4985215;28;20226;-72
2023/02/01 08:35:24;;;;;;;23.20;5.03;;;;;;;;;;4984325;28;20189;-71
2023/02/01 08:37:50;;;;;;;20.37;4.63;;;;;;;;;;4985360;28;20178;-71
2023/02/01 08:40:16;;;;;;;26.10;4.87;;;;;;;;;;4967404;28;20216;-71
2023/02/01 08:42:53;;;;;;;19.20;5.43;;;;;;;;;;4988128;28;20965;-71
2023/02/01 08:45:26;;;;;;;27.20;4.90;;;;;;;;;;4969194;28;20200;-71
2023/02/01 08:47:52;;;;;;;33.80;6.10;;;;;;;;;;4988469;28;20436;-71
2023/02/01 08:50:18;;;;;;;25.63;6.50;;;;;;;;;;4988322;28;20507;-71
2023/02/01 08:52:43;;;;;;;26.83;6.23;;;;;;;;;;4989920;28;20469;-71
2023/02/01 08:55:09;;;;;;;24.80;5.20;;;;;;;;;;4987543;28;21042;-71
2023/02/01 08:57:37;;;;;;;32.73;6.23;;;;;;;;;;4990347;28;20169;-71
2023/02/01 09:00:03;;;;;;;29.30;4.73;;;;;;;;;;4991566;28;20487;-71
2023/02/01 09:02:29;;;;;;;24.97;5.00;;;;;;;;;;4968791;28;20444;-71
2023/02/01 09:04:55;;;;;;;26.30;5.40;;;;;;;;;;4990258;28;20433;-71
2023/02/01 09:07:21;;;;;;;20.60;5.40;;;;;;;;;;4986732;28;20189;-71
2023/02/01 09:09:46;;;;;;;19.70;4.87;;;;;;;;;;4968956;28;20850;-72
2023/02/01 09:12:12;;;;;;;22.30;5.43;;;;;;;;;;4985199;28;20557;-72
2023/02/01 09:14:37;;;;;;;25.50;4.63;;;;;;;;;;4986897;28;20256;-72
2023/02/01 09:17:02;;;;;;;26.97;5.80;;;;;;;;;;4985847;28;20209;-71
2023/02/01 09:19:28;;;;;;;33.70;5.20;;;;;;;;;;4985540;28;20205;-72
2023/02/01 09:21:53;;;;;;;27.57;4.83;;;;;;;;;;4989176;28;20198;-72
2023/02/01 09:24:18;;;;;;;20.30;4.47;;;;;;;;;;4986386;28;20639;-72
2023/02/01 09:26:44;;;;;;;22.80;5.13;;;;;;;;;;4983268;28;20185;-72
2023/02/01 09:29:12;;;;;;;32.37;6.83;;;;;;;;;;4988706;28;20592;-72
2023/02/01 09:31:38;;;;;;;22.13;5.40;;;;;;;;;;4970467;28;20556;-72
2023/02/01 09:34:04;;;;;;;33.77;5.13;;;;;;;;;;4987179;28;20424;-72
2023/02/01 09:36:29;;;;;;;25.80;4.70;;;;;;;;;;4983315;28;20463;-71
2023/02/01 09:38:54;;;;;;;29.70;4.27;;;;;;;;;;4968250;28;20217;-72
2023/02/01 09:41:38;;;;;;;22.17;4.77;;;;;;;;;;4969296;28;20193;-72
2023/02/01 09:44:12;;;;;;;27.00;5.20;;;;;;;;;;4984218;28;20731;-72
2023/02/01 09:46:38;;;;;;;19.80;4.90;;;;;;;;;;4987784;28;20869;-72
2023/02/01 09:49:11;;;;;;;18.57;4.80;;;;;;;;;;4985579;28;20468;-72
2023/02/01 09:51:38;;;;;;;26.27;4.17;;;;;;;;;;4985356;28;20236;-72
2023/02/01 09:54:08;;;;;;;21.13;4.37;;;;;;;;;;4986514;28;20429;-72
2023/02/01 09:57:00;;;;;;;18.60;5.00;;;;;;;;;;4987657;28;20433;-70
2023/02/01 09:59:40;;;;;;;24.37;4.93;;;;;;;;;;4964327;28;20499;-71
2023/02/01 10:02:12;;;;;;;20.43;4.10;;;;;;;;;;4985174;28;20441;-70
2023/02/01 10:04:37;;;;;;;20.80;4.07;;;;;;;;;;4986253;28;20781;-71
2023/02/01 10:07:09;;;;;;;17.30;4.03;;;;;;;;;;4970154;28;20448;-71
2023/02/01 10:09:42;;;;;;;24.00;4.80;;;;;;;;;;4987178;28;20197;-71
2023/02/01 10:12:33;;;;;;;13.33;3.83;;;;;;;;;;4981071;28;20563;-71
2023/02/01 10:15:09;;;;;;;19.43;4.13;;;;;;;;;;4959242;28;20443;-72
2023/02/01 10:17:49;;;;;;;21.90;4.23;;;;;;;;;;4976195;28;20428;-72
2023/02/01 10:20:29;;;;;;;14.57;3.53;;;;;;;;;;4985845;28;20475;-71
2023/02/01 10:23:19;;;;;;;15.67;2.90;;;;;;;;;;4985647;28;20433;-71
2023/02/01 10:25:53;;;;;;;13.20;3.20;;;;;;;;;;4983280;28;20460;-71
2023/02/01 10:28:20;;;;;;;13.60;3.20;;;;;;;;;;4971206;28;20448;-71
2023/02/01 10:30:52;;;;;;;16.97;3.27;;;;;;;;;;4983913;28;20463;-72
2023/02/01 10:33:23;;;;;;;17.10;3.30;;;;;;;;;;4983805;28;20429;-72
2023/02/01 10:35:53;;;;;;;18.17;3.83;;;;;;;;;;4963181;28;20865;-71
2023/02/01 10:38:24;;;;;;;15.73;3.20;;;;;;;;;;4987775;28;20929;-72
2023/02/01 10:40:53;;;;;;;16.47;3.33;;;;;;;;;;4986413;28;20473;-73
2023/02/01 10:43:18;;;;;;;17.30;4.33;;;;;;;;;;5006448;23;20506;-71
2023/02/01 10:45:43;;;;;;;20.03;4.10;;;;;;;;;;5023606;28;20829;-72
2023/02/01 10:48:09;;;;;;;20.20;4.77;;;;;;;;;;5025491;28;20189;-71
2023/02/01 10:50:39;;;;;;;19.37;4.13;;;;;;;;;;5026956;28;20192;-72
2023/02/01 10:53:13;;;;;;;23.70;6.00;;;;;;;;;;5020617;28;20200;-72
2023/02/01 10:55:40;;;;;;;22.07;4.30;;;;;;;;;;5008899;28;20450;-72
2023/02/01 10:58:08;;;;;;;12.43;3.70;;;;;;;;;;5010745;28;20931;-72
2023/02/01 11:00:36;;;;;;;18.83;3.73;;;;;;;;;;5002529;28;20443;-72
2023/02/01 11:03:18;;;;;;;30.60;4.40;;;;;;;;;;5022701;28;20954;-72
2023/02/01 11:05:45;;;;;;;22.97;4.63;;;;;;;;;;5021953;28;20470;-71
2023/02/01 11:08:14;;;;;;;18.83;3.27;;;;;;;;;;5020762;28;20516;-71
2023/02/01 11:10:40;;;;;;;9.43;1.77;;;;;;;;;;5006791;28;20563;-71
2023/02/01 11:13:13;;;;;;;8.73;1.93;;;;;;;;;;5002380;28;20513;-72
2023/02/01 11:15:42;;;;;;;4.80;1.20;;;;;;;;;;5020730;28;20455;-71
2023/02/01 11:18:15;;;;;;;6.80;1.53;;;;;;;;;;5011801;28;20501;-71
2023/02/01 11:20:41;;;;;;;5.00;2.50;;;;;;;;;;5010941;28;20459;-72
2023/02/01 11:23:13;;;;;;;4.63;1.23;;;;;;;;;;5004611;28;20550;-72
2023/02/01 11:25:47;;;;;;;4.97;1.30;;;;;;;;;;5001637;28;20435;-71
2023/02/01 11:28:13;;;;;;;8.73;1.20;;;;;;;;;;5022627;28;20438;-72
2023/02/01 11:30:40;;;;;;;6.10;1.40;;;;;;;;;;5019012;28;20928;-72
2023/02/01 11:33:09;;;;;;;4.50;1.07;;;;;;;;;;5003378;28;21050;-71
2023/02/01 11:35:37;;;;;;;6.50;1.30;;;;;;;;;;5000533;28;20923;-71
2023/02/01 11:38:11;;;;;;;6.20;1.20;;;;;;;;;;5012673;28;20990;-71
2023/02/01 11:40:37;;;;;;;5.30;1.30;;;;;;;;;;5005321;28;20850;-71
2023/02/01 11:43:22;;;;;;;4.47;1.00;;;;;;;;;;5016808;28;20493;-71
2023/02/01 11:46:13;;;;;;;2.57;1.10;;;;;;;;;;5016803;28;20442;-71
2023/02/01 11:48:39;;;;;;;3.07;1.00;;;;;;;;;;5006560;28;20531;-71
2023/02/01 11:51:10;;;;;;;4.43;1.03;;;;;;;;;;5013224;28;20427;-71
2023/02/01 11:53:42;;;;;;;5.93;1.13;;;;;;;;;;5002396;28;20208;-72
2023/02/01 11:56:19;;;;;;;12.30;1.87;;;;;;;;;;5021810;28;20433;-72
2023/02/01 11:59:00;;;;;;;5.27;0.90;;;;;;;;;;5003986;28;20441;-71
2023/02/01 12:01:33;;;;;;;4.63;1.47;;;;;;;;;;5020926;28;20454;-71
2023/02/01 12:04:17;;;;;;;7.90;1.10;;;;;;;;;;5002430;28;20452;-71
2023/02/01 12:06:49;;;;;;;4.33;1.10;;;;;;;;;;5021509;28;20514;-72
2023/02/01 12:09:21;;;;;;;9.30;1.67;;;;;;;;;;5007939;28;20528;-72
2023/02/01 12:12:15;;;;;;;5.60;1.50;;;;;;;;;;5006702;28;20509;-71
2023/02/01 12:14:52;;;;;;;5.60;1.30;;;;;;;;;;5009991;28;21373;-72
2023/02/01 12:17:36;;;;;;;6.73;1.90;;;;;;;;;;5024701;28;20433;-72
2023/02/01 12:20:08;;;;;;;12.50;1.60;;;;;;;;;;5023126;28;20434;-72
2023/02/01 12:22:42;;;;;;;8.77;1.57;;;;;;;;;;5022203;28;20461;-72
2023/02/01 12:25:16;;;;;;;4.80;1.50;;;;;;;;;;5024826;28;20438;-72
2023/02/01 12:28:00;;;;;;;11.63;1.87;;;;;;;;;;5021378;28;20458;-72
2023/02/01 12:30:35;;;;;;;8.00;2.17;;;;;;;;;;5006287;28;20473;-72
2023/02/01 12:33:07;;;;;;;13.80;1.90;;;;;;;;;;5024236;28;20462;-72
2023/02/01 12:35:49;;;;;;;18.37;2.40;;;;;;;;;;5022009;28;20434;-72
2023/02/01 12:38:20;;;;;;;7.53;2.43;;;;;;;;;;5021911;28;20515;-73
2023/02/01 12:40:59;;;;;;;8.30;1.87;;;;;;;;;;5002517;28;20485;-72
2023/02/01 12:43:43;;;;;;;6.90;1.80;;;;;;;;;;5015502;28;20539;-72
2023/02/01 12:46:32;;;;;;;10.40;2.07;;;;;;;;;;5022837;28;20955;-73
2023/02/01 12:49:01;;;;;;;9.10;2.00;;;;;;;;;;5002075;28;20463;-73
2023/02/01 12:51:28;;;;;;;9.63;2.30;;;;;;;;;;5007187;28;20435;-72
2023/02/01 12:54:01;;;;;;;10.17;2.30;;;;;;;;;;5011457;28;20439;-72
2023/02/01 12:56:29;;;;;;;15.37;3.33;;;;;;;;;;4998989;28;20831;-73
2023/02/01 12:59:00;;;;;;;10.83;2.60;;;;;;;;;;5017210;28;20855;-73
2023/02/01 13:01:38;;;;;;;15.40;3.30;;;;;;;;;;4997837;28;20431;-73
2023/02/01 13:04:05;;;;;;;19.60;3.77;;;;;;;;;;4996555;28;20465;-73
2023/02/01 13:06:37;;;;;;;16.10;3.20;;;;;;;;;;4990875;28;20579;-73
2023/02/01 13:09:14;;;;;;;20.17;4.10;;;;;;;;;;5013679;28;20467;-73
2023/02/01 13:11:42;;;;;;;19.13;4.60;;;;;;;;;;5014005;28;20469;-73
2023/02/01 13:14:28;;;;;;;23.53;4.80;;;;;;;;;;5024160;28;20438;-73
2023/02/01 13:17:04;;;;;;;29.47;5.27;;;;;;;;;;5006563;28;20449;-73
2023/02/01 13:19:42;;;;;;;24.97;6.23;;;;;;;;;;5007513;28;20455;-73
2023/02/01 13:22:12;;;;;;;26.33;6.30;;;;;;;;;;5026401;28;20434;-72
2023/02/01 13:24:49;;;;;;;28.53;6.00;;;;;;;;;;5007522;28;20419;-73
2023/02/01 13:27:15;;;;;;;26.83;5.10;;;;;;;;;;5020760;28;20534;-73
2023/02/01 13:30:04;;;;;;;28.13;5.53;;;;;;;;;;5025291;28;21170;-73
2023/02/01 13:32:32;;;;;;;25.67;5.43;;;;;;;;;;4998967;28;20443;-73
2023/02/01 13:34:58;;;;;;;24.27;5.20;;;;;;;;;;5029120;28;20419;-72
2023/02/01 13:37:41;;;;;;;25.77;5.10;;;;;;;;;;5012759;28;20415;-73
2023/02/01 13:40:25;;;;;;;23.47;5.50;;;;;;;;;;5019829;28;20647;-73
2023/02/01 13:42:55;;;;;;;22.03;4.27;;;;;;;;;;5012334;28;20470;-74
2023/02/01 13:45:22;;;;;;;30.07;6.60;;;;;;;;;;5022590;28;20431;-74
2023/02/01 13:47:52;;;;;;;31.87;5.47;;;;;;;;;;5004649;28;20439;-74
2023/02/01 13:50:33;;;;;;;26.43;5.23;;;;;;;;;;5017860;28;20563;-74
2023/02/01 13:53:11;;;;;;;28.70;5.97;;;;;;;;;;5001472;28;20458;-74
2023/02/01 13:55:41;;;;;;;29.60;5.73;;;;;;;;;;5022309;28;20947;-74
2023/02/01 13:58:15;;;;;;;28.57;6.60;;;;;;;;;;5022351;28;20521;-74
2023/02/01 14:00:41;;;;;;;31.93;6.27;;;;;;;;;;5020279;28;20526;-74
2023/02/01 14:03:08;;;;;;;23.00;6.00;;;;;;;;;;5008969;28;20581;-73
2023/02/01 14:05:34;;;;;;;24.57;4.70;;;;;;;;;;5022040;28;20431;-74
2023/02/01 14:08:05;;;;;;;20.63;5.20;;;;;;;;;;5000993;28;20445;-74
2023/02/01 14:10:50;;;;;;;24.43;5.73;;;;;;;;;;5023902;28;20204;-74
2023/02/01 14:13:21;;;;;;;49.00;5.83;;;;;;;;;;5020673;28;20946;-74
2023/02/01 14:16:02;;;;;;;30.77;5.80;;;;;;;;;;5021334;28;20426;-74
2023/02/01 14:18:33;;;;;;;25.50;5.27;;;;;;;;;;5020685;28;20435;-74
2023/02/01 14:21:24;;;;;;;19.70;4.77;;;;;;;;;;5020098;28;20550;-74
2023/02/01 14:23:52;;;;;;;30.17;5.70;;;;;;;;;;5014708;28;20869;-75
2023/02/01 14:26:44;;;;;;;29.10;5.27;;;;;;;;;;5022031;28;20435;-75
2023/02/01 14:29:15;;;;;;;21.27;5.20;;;;;;;;;;5001106;28;20991;-74
2023/02/01 14:31:54;;;;;;;29.03;6.10;;;;;;;;;;5025578;28;20485;-75
2023/02/01 14:34:25;;;;;;;31.47;6.83;;;;;;;;;;5007219;28;20431;-75
2023/02/01 14:36:54;;;;;;;26.63;4.70;;;;;;;;;;5023685;28;20481;-74
2023/02/01 14:39:24;;;;;;;24.90;5.87;;;;;;;;;;5025340;28;20434;-75
2023/02/01 14:41:52;;;;;;;19.70;4.73;;;;;;;;;;5024211;28;20438;-75
2023/02/01 14:44:26;;;;;;;23.07;5.03;;;;;;;;;;5024396;28;20446;-75
2023/02/01 14:47:05;;;;;;;20.83;4.03;;;;;;;;;;5022957;28;20430;-75
2023/02/01 14:49:36;;;;;;;28.60;6.73;;;;;;;;;;5005262;28;20466;-74
2023/02/01 14:52:02;;;;;;;25.17;5.07;;;;;;;;;;5023013;28;20450;-75
2023/02/01 14:54:28;;;;;;;17.33;3.90;;;;;;;;;;5022558;28;20422;-75
2023/02/01 14:56:54;;;;;;;28.77;6.13;;;;;;;;;;5026017;28;20435;-75
2023/02/01 14:59:22;;;;;;;24.73;5.30;;;;;;;;;;5009766;28;20215;-75
2023/02/01 15:01:53;;;;;;;23.93;5.60;;;;;;;;;;5022604;28;20809;-74
2023/02/01 15:04:24;;;;;;;19.53;5.23;;;;;;;;;;5022099;28;20439;-74
2023/02/01 15:06:55;;;;;;;25.57;4.23;;;;;;;;;;5022676;28;20430;-74
2023/02/01 15:09:20;;;;;;;26.97;5.00;;;;;;;;;;5022408;28;20462;-74